Time;durP1;ratioP1;P1;durP2;ratioP2;P2;SDS_P1;SDS_P2;PMS_P1;PMS_P2;Temp;Humidity;BMP_temperature;BMP_pressure;BME280_temperature;BME280_humidity;BME280_pressure;Samples;Min_cycle;Max_cycle;Signal;HPM_P1;HPM_P2
2023/03/15 00:01:13;;;;;;;11.17;2.90;;;3.60;1.00;;;;;;4952517;28;20229;-65
2023/03/15 00:03:41;;;;;;;15.87;3.10;;;3.60;1.00;;;;;;4967734;28;20785;-63
2023/03/15 00:06:09;;;;;;;17.87;3.90;;;3.70;1.00;;;;;;4953190;28;20215;-66
2023/03/15 00:08:36;;;;;;;12.00;3.60;;;3.70;1.00;;;;;;4963667;28;20558;-65
2023/03/15 00:11:03;;;;;;;12.27;4.67;;;3.70;1.00;;;;;;4944167;28;20195;-65
2023/03/15 00:13:31;;;;;;;17.33;4.27;;;3.70;1.00;;;;;;4967492;28;20203;-64
2023/03/15 00:16:01;;;;;;;12.00;4.83;;;3.70;1.00;;;;;;4952820;28;20267;-65
2023/03/15 00:18:28;;;;;;;8.53;3.37;;;3.70;1.00;;;;;;4965809;28;20202;-64
2023/03/15 00:20:55;;;;;;;13.97;2.67;;;3.80;1.00;;;;;;4964765;28;20662;-65
2023/03/15 00:23:25;;;;;;;8.57;3.00;;;3.80;1.00;;;;;;4949000;28;20282;-64
2023/03/15 00:25:53;;;;;;;10.53;2.87;;;3.80;1.00;;;;;;4934765;29;20633;-66
2023/03/15 00:28:20;;;;;;;9.77;2.40;;;3.90;1.00;;;;;;4951624;29;20222;-65
2023/03/15 00:30:47;;;;;;;11.07;3.20;;;3.90;1.00;;;;;;4966519;28;20250;-64
2023/03/15 00:33:15;;;;;;;10.90;2.83;;;3.70;1.00;;;;;;4967344;28;20604;-66
2023/03/15 00:35:44;;;;;;;7.43;3.30;;;3.10;1.00;;;;;;4954069;29;20226;-64
2023/03/15 00:38:12;;;;;;;10.03;3.23;;;2.70;1.00;;;;;;4951101;28;20618;-66
2023/03/15 00:40:41;;;;;;;7.10;2.90;;;2.60;35.30;;;;;;4950084;29;20211;-65
2023/03/15 00:43:08;;;;;;;7.00;2.70;;;2.40;99.90;;;;;;4950816;29;20203;-64
2023/03/15 00:45:35;;;;;;;5.80;3.10;;;2.40;99.90;;;;;;4952185;28;20191;-65
2023/03/15 00:48:03;;;;;;;8.33;3.63;;;2.40;99.90;;;;;;4965112;28;20666;-65
2023/03/15 00:50:30;;;;;;;11.17;3.87;;;2.40;99.90;;;;;;4966000;28;20215;-64
2023/03/15 00:52:57;;;;;;;8.30;2.47;;;2.30;99.90;;;;;;4965982;28;20201;-64
2023/03/15 00:55:27;;;;;;;5.40;2.73;;;2.40;99.90;;;;;;4935132;29;20227;-65
2023/03/15 00:57:55;;;;;;;8.70;2.97;;;2.20;99.90;;;;;;4945343;28;20223;-66
2023/03/15 01:00:23;;;;;;;7.93;2.83;;;2.30;99.90;;;;;;4964637;28;20210;-66
2023/03/15 01:02:53;;;;;;;9.13;3.00;;;2.40;1.00;;;;;;4966766;28;20226;-65
2023/03/15 01:05:21;;;;;;;9.60;4.07;;;2.40;99.90;;;;;;4951303;28;20254;-64
2023/03/15 01:07:48;;;;;;;10.77;3.70;;;2.30;99.90;;;;;;4965317;28;20293;-66
2023/03/15 01:10:16;;;;;;;11.57;3.60;;;2.20;1.00;;;;;;4949173;28;20229;-66
2023/03/15 01:12:43;;;;;;;8.73;3.87;;;2.20;1.00;;;;;;4951204;28;20285;-65
2023/03/15 01:15:12;;;;;;;8.53;4.27;;;2.00;1.00;;;;;;4951607;29;20659;-65
2023/03/15 01:17:40;;;;;;;9.70;4.53;;;2.00;1.00;;;;;;4942772;28;20614;-64
2023/03/15 01:20:09;;;;;;;11.13;4.20;;;2.00;1.00;;;;;;4941032;29;20199;-65
2023/03/15 01:22:36;;;;;;;15.27;4.83;;;1.90;1.00;;;;;;4950658;28;20211;-64
2023/03/15 01:25:03;;;;;;;13.00;5.33;;;1.80;1.00;;;;;;4956440;28;20269;-64
2023/03/15 01:27:30;;;;;;;11.73;4.73;;;1.80;1.00;;;;;;4952154;29;20219;-63
2023/03/15 01:29:57;;;;;;;9.93;5.27;;;1.70;6.70;;;;;;4967603;28;20742;-63
2023/03/15 01:32:25;;;;;;;12.77;5.37;;;1.80;29.60;;;;;;4951080;29;20910;-64
2023/03/15 01:34:52;;;;;;;8.83;5.40;;;1.80;99.90;;;;;;4952149;28;20658;-64
2023/03/15 01:37:23;;;;;;;12.50;7.03;;;1.70;99.90;;;;;;4943792;28;20217;-64
2023/03/15 01:39:50;;;;;;;18.47;7.17;;;1.70;99.90;;;;;;4964501;28;20210;-63
2023/03/15 01:42:18;;;;;;;15.20;6.43;;;1.70;99.90;;;;;;4966026;28;20211;-63
2023/03/15 01:44:51;;;;;;;14.30;7.70;;;1.70;99.90;;;;;;4945581;28;20211;-63
2023/03/15 01:47:18;;;;;;;14.40;6.83;;;1.60;99.90;;;;;;4964936;28;20297;-64
2023/03/15 01:49:50;;;;;;;16.80;7.50;;;1.60;99.90;;;;;;4965598;28;20579;-65
2023/03/15 01:52:25;;;;;;;17.47;7.33;;;1.60;99.90;;;;;;4952555;28;20202;-63
2023/03/15 01:55:05;;;;;;;18.70;7.70;;;1.70;99.90;;;;;;4949597;29;20207;-64
2023/03/15 01:57:40;;;;;;;18.37;7.33;;;1.80;99.90;;;;;;4941402;28;20214;-64
2023/03/15 02:00:11;;;;;;;18.03;7.60;;;1.80;99.90;;;;;;4949204;28;20210;-64
2023/03/15 02:02:55;;;;;;;13.93;6.87;;;1.90;1.00;;;;;;4948156;28;20230;-65
2023/03/15 02:05:31;;;;;;;13.73;7.40;;;2.10;1.00;;;;;;4963732;28;20246;-65
2023/03/15 02:08:01;;;;;;;19.70;8.40;;;2.10;1.00;;;;;;4949750;28;20215;-63
2023/03/15 02:10:39;;;;;;;21.97;7.93;;;2.10;99.90;;;;;;4948663;28;20191;-64
2023/03/15 02:13:07;;;;;;;14.80;7.83;;;2.00;27.50;;;;;;4966201;28;20207;-64
2023/03/15 02:15:34;;;;;;;21.70;7.83;;;2.00;99.90;;;;;;4944147;28;20241;-64
2023/03/15 02:18:04;;;;;;;19.37;9.40;;;2.00;99.90;;;;;;4963677;28;20242;-64
2023/03/15 02:20:53;;;;;;;24.10;10.20;;;2.10;99.90;;;;;;4966809;28;20203;-64
2023/03/15 02:23:22;;;;;;;23.07;9.10;;;2.20;99.90;;;;;;4950259;29;20195;-63
2023/03/15 02:26:11;;;;;;;19.70;8.60;;;2.20;99.90;;;;;;4964886;28;20552;-65
2023/03/15 02:28:39;;;;;;;19.37;9.00;;;2.30;90.50;;;;;;4951460;29;20195;-64
2023/03/15 02:31:06;;;;;;;21.33;9.40;;;2.30;1.00;;;;;;4943021;28;20195;-63
2023/03/15 02:33:49;;;;;;;26.30;11.07;;;2.30;1.00;;;;;;4951974;29;20620;-64
2023/03/15 02:36:25;;;;;;;16.27;9.97;;;2.40;1.00;;;;;;4950466;29;20203;-64
2023/03/15 02:38:53;;;;;;;26.60;12.17;;;2.40;1.00;;;;;;4949451;29;20216;-66
2023/03/15 02:41:33;;;;;;;20.93;11.13;;;2.50;1.00;;;;;;4949357;28;20258;-64
2023/03/15 02:44:13;;;;;;;23.30;11.80;;;2.50;1.00;;;;;;4951296;29;20191;-65
2023/03/15 02:46:43;;;;;;;23.00;13.10;;;2.50;1.00;;;;;;4942373;28;20257;-65
2023/03/15 02:49:12;;;;;;;21.63;11.60;;;2.60;1.00;;;;;;4948958;29;20207;-66
2023/03/15 02:51:39;;;;;;;18.97;11.37;;;2.60;1.00;;;;;;4948904;29;20187;-64
2023/03/15 02:54:06;;;;;;;17.47;12.13;;;2.70;1.00;;;;;;4933201;29;20195;-66
2023/03/15 02:56:33;;;;;;;20.53;12.93;;;2.80;1.00;;;;;;4950081;29;20230;-66
2023/03/15 02:59:01;;;;;;;23.30;12.87;;;2.80;1.00;;;;;;4949743;29;20212;-67
2023/03/15 03:01:30;;;;;;;20.40;12.60;;;2.90;1.00;;;;;;4947616;28;20203;-64
2023/03/15 03:03:57;;;;;;;21.57;12.97;;;2.90;1.00;;;;;;4949463;29;20269;-64
2023/03/15 03:06:24;;;;;;;18.87;13.80;;;2.90;1.00;;;;;;4948531;28;20237;-65
2023/03/15 03:08:52;;;;;;;24.77;14.13;;;3.00;1.00;;;;;;4948134;28;20289;-65
2023/03/15 03:11:19;;;;;;;15.70;13.57;;;3.00;1.00;;;;;;4944397;28;20226;-64
2023/03/15 03:13:46;;;;;;;22.73;15.50;;;3.00;1.00;;;;;;4951988;28;20230;-64
2023/03/15 03:16:13;;;;;;;21.60;14.90;;;3.00;1.00;;;;;;4954088;28;20781;-65
2023/03/15 03:18:42;;;;;;;29.57;17.27;;;3.10;1.00;;;;;;4953708;28;20286;-65
2023/03/15 03:21:09;;;;;;;27.23;17.87;;;3.00;1.00;;;;;;4952567;28;20687;-65
2023/03/15 03:23:36;;;;;;;34.83;20.50;;;3.00;1.00;;;;;;4953772;28;20203;-65
2023/03/15 03:26:10;;;;;;;27.30;20.20;;;3.00;1.00;;;;;;4967681;28;20290;-64
2023/03/15 03:28:37;;;;;;;29.50;20.23;;;3.00;1.00;;;;;;4953923;28;20214;-65
2023/03/15 03:31:04;;;;;;;30.07;21.37;;;3.10;1.00;;;;;;4951422;28;20196;-64
2023/03/15 03:33:31;;;;;;;34.07;21.37;;;3.10;1.00;;;;;;4954307;28;20195;-67
2023/03/15 03:36:03;;;;;;;36.23;20.97;;;3.10;1.00;;;;;;4969707;28;20679;-65
2023/03/15 03:38:30;;;;;;;30.80;20.77;;;3.10;1.00;;;;;;4954117;28;20293;-63
2023/03/15 03:41:00;;;;;;;27.17;19.93;;;3.10;1.00;;;;;;4952814;28;20674;-63
2023/03/15 03:43:30;;;;;;;29.87;20.37;;;3.10;1.00;;;;;;4951018;28;20198;-64
2023/03/15 03:45:57;;;;;;;25.70;17.40;;;3.20;1.00;;;;;;4952186;28;20199;-64
2023/03/15 03:48:25;;;;;;;26.57;16.87;;;3.20;1.00;;;;;;4952188;28;20219;-64
2023/03/15 03:50:52;;;;;;;22.97;15.80;;;3.20;1.00;;;;;;4953026;28;20679;-63
2023/03/15 03:53:19;;;;;;;23.27;16.87;;;3.20;1.00;;;;;;4952579;28;20224;-65
2023/03/15 03:55:47;;;;;;;21.27;17.23;;;3.20;1.00;;;;;;4966485;28;20203;-64
2023/03/15 03:58:17;;;;;;;22.43;17.17;;;3.30;1.00;;;;;;4953324;28;20203;-65
2023/03/15 04:00:53;;;;;;;20.93;16.63;;;3.30;1.00;;;;;;4967830;28;20234;-65
2023/03/15 04:03:26;;;;;;;20.87;15.20;;;3.20;1.00;;;;;;4950774;28;20625;-67
2023/03/15 04:06:04;;;;;;;16.80;14.27;;;3.20;1.00;;;;;;4951966;29;20254;-65
2023/03/15 04:08:35;;;;;;;19.43;13.77;;;3.20;1.00;;;;;;4951996;29;20640;-65
2023/03/15 04:11:03;;;;;;;14.83;13.23;;;3.20;1.00;;;;;;4929833;29;20211;-64
2023/03/15 04:13:33;;;;;;;26.40;20.93;;;3.20;1.00;;;;;;4943718;29;20187;-66
2023/03/15 04:16:02;;;;;;;20.33;15.33;;;3.20;1.00;;;;;;4952581;28;20290;-65
2023/03/15 04:18:39;;;;;;;17.90;13.57;;;3.20;1.00;;;;;;4948003;28;20199;-67
2023/03/15 04:21:09;;;;;;;19.90;14.73;;;3.20;1.00;;;;;;4949841;28;20274;-65
2023/03/15 04:23:40;;;;;;;18.20;12.70;;;3.20;1.00;;;;;;4942149;28;20201;-65
2023/03/15 04:26:16;;;;;;;23.83;18.80;;;3.30;1.00;;;;;;4949216;28;20302;-65
2023/03/15 04:28:55;;;;;;;34.70;24.43;;;3.30;1.00;;;;;;4943830;28;20281;-64
2023/03/15 04:31:41;;;;;;;17.10;12.17;;;3.30;1.00;;;;;;4952840;28;20189;-64
2023/03/15 04:34:19;;;;;;;21.93;13.40;;;3.30;1.00;;;;;;4951588;28;20202;-64
2023/03/15 04:37:12;;;;;;;12.40;10.47;;;3.30;1.00;;;;;;4949194;28;20211;-65
2023/03/15 04:40:11;;;;;;;11.97;9.87;;;3.30;1.00;;;;;;4951106;28;20207;-65
2023/03/15 04:42:54;;;;;;;12.37;10.27;;;3.20;1.00;;;;;;4950838;28;20199;-66
2023/03/15 04:45:48;;;;;;;13.43;10.17;;;3.20;1.00;;;;;;4953811;28;20214;-63
2023/03/15 04:48:35;;;;;;;11.77;8.97;;;3.10;1.00;;;;;;4965388;28;20761;-64
2023/03/15 04:51:19;;;;;;;11.67;10.33;;;3.00;1.00;;;;;;4952472;28;20225;-66
2023/03/15 04:53:59;;;;;;;20.13;16.97;;;3.00;1.00;;;;;;4958113;28;20205;-66
2023/03/15 04:56:42;;;;;;;19.70;13.33;;;3.00;1.00;;;;;;4950710;28;20210;-66
2023/03/15 04:59:27;;;;;;;12.80;10.03;;;3.00;1.00;;;;;;4952775;28;21179;-64
2023/03/15 05:02:16;;;;;;;14.57;10.70;;;3.00;1.00;;;;;;4969035;28;20281;-63
2023/03/15 05:05:12;;;;;;;17.50;10.80;;;3.10;1.00;;;;;;4963539;28;20249;-65
2023/03/15 05:07:58;;;;;;;12.53;9.37;;;3.10;1.00;;;;;;4952413;28;20375;-67
2023/03/15 05:10:42;;;;;;;11.33;9.07;;;3.10;1.00;;;;;;4946405;28;20201;-66
2023/03/15 05:13:32;;;;;;;12.20;10.33;;;3.10;1.00;;;;;;4952360;28;20254;-64
2023/03/15 05:16:13;;;;;;;12.07;9.60;;;3.10;1.00;;;;;;4951001;28;20293;-64
2023/03/15 05:18:59;;;;;;;13.90;10.03;;;3.10;1.00;;;;;;4950750;28;20679;-63
2023/03/15 05:21:46;;;;;;;13.60;9.60;;;3.00;1.00;;;;;;4961390;28;20215;-64
2023/03/15 05:24:21;;;;;;;15.87;9.50;;;2.90;1.00;;;;;;4950799;28;20206;-64
2023/03/15 05:27:05;;;;;;;18.77;9.80;;;2.80;1.00;;;;;;4953049;28;20226;-64
2023/03/15 05:29:41;;;;;;;11.47;9.43;;;2.80;1.00;;;;;;4946457;29;20190;-65
2023/03/15 05:32:25;;;;;;;15.63;9.43;;;2.70;1.00;;;;;;4945980;28;20302;-64
2023/03/15 05:35:12;;;;;;;17.20;10.00;;;2.70;1.00;;;;;;4953335;29;20214;-64
2023/03/15 05:37:57;;;;;;;15.10;11.83;;;2.70;1.00;;;;;;4949629;28;20225;-65
2023/03/15 05:40:46;;;;;;;20.03;14.70;;;2.70;1.00;;;;;;4963466;28;20186;-65
2023/03/15 05:43:45;;;;;;;21.40;12.27;;;2.70;1.00;;;;;;4963289;28;20595;-67
2023/03/15 05:46:30;;;;;;;14.43;10.70;;;2.70;1.00;;;;;;4965278;28;20240;-66
2023/03/15 05:49:00;;;;;;;16.23;11.00;;;2.70;1.00;;;;;;4952263;29;20354;-65
2023/03/15 05:51:37;;;;;;;13.37;10.80;;;2.70;1.00;;;;;;4950830;29;20718;-64
2023/03/15 05:54:17;;;;;;;15.00;11.13;;;2.80;1.00;;;;;;4966558;28;20680;-65
2023/03/15 05:56:53;;;;;;;18.33;14.73;;;2.80;1.00;;;;;;4965853;28;20567;-66
2023/03/15 05:59:29;;;;;;;17.73;14.87;;;2.90;1.00;;;;;;4952879;28;20202;-64
2023/03/15 06:02:10;;;;;;;21.40;16.10;;;2.90;1.00;;;;;;4951716;29;20219;-66
2023/03/15 06:04:49;;;;;;;16.80;12.30;;;2.80;1.00;;;;;;4950059;28;20638;-66
2023/03/15 06:07:20;;;;;;;14.37;11.60;;;2.90;1.00;;;;;;4962647;28;20219;-65
2023/03/15 06:09:47;;;;;;;15.70;11.40;;;2.90;1.00;;;;;;4948952;28;20206;-66
2023/03/15 06:12:14;;;;;;;13.50;10.73;;;2.90;1.00;;;;;;4963045;28;20199;-66
2023/03/15 06:14:42;;;;;;;13.47;10.83;;;2.90;1.00;;;;;;4949834;28;20753;-64
2023/03/15 06:17:10;;;;;;;12.67;10.10;;;2.90;1.00;;;;;;4963520;28;20199;-64
2023/03/15 06:19:41;;;;;;;16.17;9.83;;;2.90;1.00;;;;;;4950529;28;20198;-64
2023/03/15 06:22:08;;;;;;;13.77;10.03;;;2.90;1.00;;;;;;4948287;29;20203;-64
2023/03/15 06:24:42;;;;;;;15.23;9.67;;;2.90;1.00;;;;;;4947693;29;20191;-64
2023/03/15 06:27:10;;;;;;;18.27;10.20;;;2.90;1.00;;;;;;4965609;28;20566;-65
2023/03/15 06:29:37;;;;;;;14.17;10.07;;;3.00;1.00;;;;;;4967381;28;20198;-64
2023/03/15 06:32:04;;;;;;;15.57;9.70;;;3.20;1.00;;;;;;4966139;28;20202;-64
2023/03/15 06:34:34;;;;;;;13.97;9.77;;;3.30;1.00;;;;;;4949913;29;20645;-64
2023/03/15 06:37:01;;;;;;;12.13;9.80;;;3.50;1.00;;;;;;4943095;28;20203;-64
2023/03/15 06:39:29;;;;;;;15.00;9.70;;;3.60;99.90;;;;;;4947045;29;20195;-64
2023/03/15 06:41:57;;;;;;;13.83;9.17;;;3.70;99.90;;;;;;4964240;28;20198;-64
2023/03/15 06:44:26;;;;;;;11.83;8.63;;;3.70;99.90;;;;;;4948175;28;20737;-65
2023/03/15 06:46:58;;;;;;;14.67;8.77;;;3.70;99.90;;;;;;4948976;29;20222;-65
2023/03/15 06:49:26;;;;;;;11.33;8.13;;;3.80;99.90;;;;;;4949574;28;20207;-65
2023/03/15 06:51:53;;;;;;;17.17;9.50;;;4.00;99.90;;;;;;4948724;28;20210;-65
2023/03/15 06:54:21;;;;;;;13.13;8.00;;;4.30;99.90;;;;;;4949092;29;20220;-66
2023/03/15 06:56:48;;;;;;;14.40;8.40;;;4.60;99.90;;;;;;4948944;29;20207;-65
2023/03/15 06:59:16;;;;;;;12.83;7.50;;;5.30;99.90;;;;;;4963239;28;20206;-65
2023/03/15 07:01:43;;;;;;;11.67;6.73;;;5.60;9.60;;;;;;4964138;28;20201;-65
2023/03/15 07:04:10;;;;;;;13.03;6.90;;;5.20;1.00;;;;;;4948874;28;20538;-65
2023/03/15 07:06:37;;;;;;;9.53;6.67;;;4.90;1.00;;;;;;4949302;29;20195;-65
2023/03/15 07:09:04;;;;;;;10.03;6.70;;;4.80;1.00;;;;;;4950961;28;20694;-65
2023/03/15 07:11:32;;;;;;;9.10;5.90;;;4.90;1.00;;;;;;4947319;29;20209;-64
2023/03/15 07:13:59;;;;;;;9.33;7.03;;;4.90;1.00;;;;;;4950181;29;20254;-71
2023/03/15 07:16:26;;;;;;;11.53;7.43;;;4.80;1.00;;;;;;4951270;28;20217;-65
2023/03/15 07:18:55;;;;;;;8.70;6.50;;;5.10;1.00;;;;;;4947880;28;20872;-65
2023/03/15 07:21:22;;;;;;;9.97;6.90;;;5.00;1.00;;;;;;4964123;28;20214;-65
2023/03/15 07:23:49;;;;;;;11.40;7.10;;;5.10;1.00;;;;;;4964772;28;20222;-65
2023/03/15 07:26:16;;;;;;;9.13;6.63;;;5.10;1.00;;;;;;4950390;29;20207;-65
2023/03/15 07:28:43;;;;;;;10.57;6.87;;;5.40;1.00;;;;;;4947665;28;20653;-65
2023/03/15 07:31:11;;;;;;;11.87;6.80;;;5.90;1.00;;;;;;4940458;28;20222;-64
2023/03/15 07:33:38;;;;;;;12.70;6.37;;;7.40;1.00;;;;;;4947567;29;20195;-64
2023/03/15 07:36:06;;;;;;;11.50;6.63;;;7.50;1.00;;;;;;4942470;28;20262;-64
2023/03/15 07:38:34;;;;;;;8.73;6.13;;;7.20;1.00;;;;;;4962311;28;20242;-65
2023/03/15 07:41:04;;;;;;;9.70;5.50;;;6.80;1.00;;;;;;4942306;28;20211;-66
2023/03/15 07:43:31;;;;;;;10.07;6.30;;;6.10;1.00;;;;;;4947312;28;20686;-65
2023/03/15 07:46:09;;;;;;;9.73;6.53;;;5.70;1.00;;;;;;4963741;28;20202;-65
2023/03/15 07:48:36;;;;;;;7.30;5.83;;;5.60;1.00;;;;;;4950312;29;20215;-65
2023/03/15 07:51:04;;;;;;;10.33;5.30;;;5.70;1.00;;;;;;4963861;28;20191;-65
2023/03/15 07:53:30;;;;;;;7.83;5.17;;;7.70;1.00;;;;;;4962379;28;20211;-66
2023/03/15 07:55:57;;;;;;;4.20;3.67;;;12.70;1.00;;;;;;4946573;28;20692;-64
2023/03/15 07:58:24;;;;;;;6.32;4.28;;;16.70;1.00;;;;;;4945794;29;20558;-67
2023/03/15 08:00:55;;;;;;;6.85;3.28;;;19.30;1.00;;;;;;4947311;28;20230;-67
2023/03/15 08:03:23;;;;;;;5.13;3.40;;;20.90;1.00;;;;;;4947041;29;20757;-64
2023/03/15 08:05:50;;;;;;;5.07;3.30;;;20.20;1.00;;;;;;4948147;29;20303;-66
2023/03/15 08:08:18;;;;;;;7.55;3.33;;;18.40;1.00;;;;;;4964763;28;20274;-67
2023/03/15 08:10:45;;;;;;;8.25;3.90;;;14.90;1.00;;;;;;4947828;28;20203;-65
2023/03/15 08:13:12;;;;;;;6.95;3.78;;;11.90;1.00;;;;;;4953295;29;20772;-64
2023/03/15 08:15:40;;;;;;;7.70;4.18;;;10.60;1.00;;;;;;4952212;28;20281;-64
2023/03/15 08:18:07;;;;;;;10.43;4.87;;;9.60;1.00;;;;;;4954144;28;20262;-64
2023/03/15 08:20:34;;;;;;;6.67;4.30;;;9.10;1.00;;;;;;4952784;29;20215;-66
2023/03/15 08:23:01;;;;;;;7.93;4.23;;;8.80;1.00;;;;;;4951806;28;20722;-65
2023/03/15 08:25:29;;;;;;;8.70;4.53;;;8.50;1.00;;;;;;4966863;28;20250;-67
2023/03/15 08:27:56;;;;;;;6.47;4.10;;;8.20;1.00;;;;;;4951234;28;20801;-64
2023/03/15 08:30:23;;;;;;;10.40;4.67;;;7.90;1.00;;;;;;4950224;28;20199;-64
2023/03/15 08:32:51;;;;;;;8.57;4.67;;;7.80;1.00;;;;;;4949334;28;20258;-66
2023/03/15 08:35:20;;;;;;;10.07;3.93;;;7.70;1.00;;;;;;4951588;28;20569;-64
2023/03/15 08:37:51;;;;;;;7.13;4.53;;;7.90;1.00;;;;;;4961151;28;20198;-67
2023/03/15 08:40:25;;;;;;;13.17;5.53;;;8.50;1.00;;;;;;4951338;29;20199;-65
2023/03/15 08:42:53;;;;;;;9.30;3.80;;;9.80;1.00;;;;;;4949673;29;20194;-65
2023/03/15 08:45:22;;;;;;;7.37;4.17;;;9.90;1.00;;;;;;4951613;28;20195;-66
2023/03/15 08:47:54;;;;;;;5.93;3.37;;;9.70;1.00;;;;;;4949540;28;20277;-64
2023/03/15 08:50:21;;;;;;;4.53;3.80;;;9.60;1.00;;;;;;4926876;29;20286;-65
2023/03/15 08:52:48;;;;;;;8.50;4.30;;;9.50;1.00;;;;;;4949925;28;20670;-66
2023/03/15 08:55:16;;;;;;;7.30;3.83;;;9.10;1.00;;;;;;4950997;28;20207;-64
2023/03/15 08:57:43;;;;;;;7.80;3.93;;;8.70;1.00;;;;;;4964006;28;20195;-66
2023/03/15 09:00:21;;;;;;;6.77;4.27;;;8.80;1.00;;;;;;4948609;28;20202;-66
2023/03/15 09:02:50;;;;;;;8.77;3.70;;;9.70;1.00;;;;;;4950906;29;20785;-66
2023/03/15 09:05:19;;;;;;;3.93;3.20;;;14.90;1.00;;;;;;4951781;28;20821;-64
2023/03/15 09:07:46;;;;;;;6.75;3.10;;;18.80;1.00;;;;;;4947703;29;20217;-69
2023/03/15 09:10:15;;;;;;;8.75;3.22;;;22.50;1.00;;;;;;4947742;29;20242;-66
2023/03/15 09:12:44;;;;;;;5.82;3.13;;;23.20;1.00;;;;;;4947857;28;20281;-66
2023/03/15 09:15:12;;;;;;;8.52;3.60;;;24.50;1.00;;;;;;4948472;29;20201;-66
2023/03/15 09:17:40;;;;;;;5.07;2.95;;;22.60;1.00;;;;;;4946869;29;20199;-65
2023/03/15 09:20:15;;;;;;;5.30;3.10;;;23.70;1.00;;;;;;4948273;29;20211;-64
2023/03/15 09:22:48;;;;;;;7.35;2.95;;;27.20;1.00;;;;;;4939952;28;20276;-64
2023/03/15 09:25:15;;;;;;;8.77;2.92;;;27.60;1.00;;;;;;4947683;29;20266;-65
2023/03/15 09:27:42;;;;;;;6.85;2.40;;;26.80;1.00;;;;;;4949278;28;20285;-64
2023/03/15 09:30:09;;;;;;;10.57;3.72;;;27.50;1.00;;;;;;4948622;29;20322;-63
2023/03/15 09:32:36;;;;;;;6.45;3.13;;;22.30;1.00;;;;;;4946939;29;20198;-63
2023/03/15 09:35:06;;;;;;;4.72;2.80;;;18.40;1.00;;;;;;4948442;29;20202;-65
2023/03/15 09:37:33;;;;;;;7.15;3.03;;;15.20;1.00;;;;;;4947246;29;20202;-66
2023/03/15 09:40:00;;;;;;;8.60;3.08;;;13.10;1.00;;;;;;4948268;29;20230;-66
2023/03/15 09:42:49;;;;;;;7.95;3.22;;;11.40;1.00;;;;;;4947878;28;20790;-67
2023/03/15 09:45:35;;;;;;;6.75;3.08;;;10.40;1.00;;;;;;4946666;29;20206;-66
2023/03/15 09:48:16;;;;;;;5.38;3.05;;;18.90;1.00;;;;;;4949521;29;20202;-64
2023/03/15 09:51:06;;;;;;;9.25;3.00;;;24.60;1.00;;;;;;4964713;28;20202;-65
2023/03/15 09:53:40;;;;;;;8.63;3.00;;;28.90;1.00;;;;;;4964046;28;20679;-66
2023/03/15 09:56:20;;;;;;;6.78;3.22;;;26.60;1.00;;;;;;4947820;29;20222;-66
2023/03/15 09:58:51;;;;;;;6.43;2.53;;;21.30;1.00;;;;;;4950297;29;20199;-64
2023/03/15 10:01:22;;;;;;;7.05;2.70;;;20.60;1.00;;;;;;4950381;28;20206;-65
2023/03/15 10:03:51;;;;;;;8.10;3.05;;;25.50;1.00;;;;;;4950011;29;20242;-64
2023/03/15 10:06:19;;;;;;;6.30;2.60;;;28.50;1.00;;;;;;4960565;28;20438;-64
2023/03/15 10:08:46;;;;;;;5.60;2.45;;;30.60;1.00;;;;;;4962225;28;20255;-66
2023/03/15 10:11:28;;;;;;;8.38;2.85;;;26.30;1.00;;;;;;4939633;28;20677;-65
2023/03/15 10:14:05;;;;;;;7.78;3.05;;;20.80;1.00;;;;;;4945642;28;20253;-65
2023/03/15 10:16:46;;;;;;;6.20;2.58;;;23.00;1.00;;;;;;4938947;28;20970;-65
2023/03/15 10:19:40;;;;;;;8.85;2.78;;;27.30;1.00;;;;;;4947789;28;20202;-65
2023/03/15 10:22:12;;;;;;;9.23;3.35;;;23.70;1.00;;;;;;4945534;28;20191;-65
2023/03/15 10:24:51;;;;;;;6.53;2.88;;;21.80;1.00;;;;;;4947946;28;20203;-65
2023/03/15 10:27:41;;;;;;;9.55;2.33;;;18.50;1.00;;;;;;4946264;29;20209;-65
2023/03/15 10:30:23;;;;;;;7.03;2.78;;;15.90;1.00;;;;;;4945898;28;20279;-64
2023/03/15 10:32:57;;;;;;;7.38;3.08;;;14.00;1.00;;;;;;4947439;29;20207;-64
2023/03/15 10:35:25;;;;;;;7.32;2.90;;;12.60;1.00;;;;;;4948600;29;20658;-66
2023/03/15 10:37:52;;;;;;;5.30;3.00;;;12.60;1.00;;;;;;4948422;29;20662;-64
2023/03/15 10:40:39;;;;;;;9.18;2.97;;;12.50;1.00;;;;;;4950093;29;20302;-66
2023/03/15 10:43:22;;;;;;;6.38;2.80;;;12.40;1.00;;;;;;4947744;29;20265;-64
2023/03/15 10:46:04;;;;;;;6.28;2.60;;;12.80;1.00;;;;;;4948698;29;20740;-64
2023/03/15 10:48:37;;;;;;;7.20;2.63;;;15.20;1.00;;;;;;4944785;28;20704;-65
2023/03/15 10:51:19;;;;;;;7.65;2.70;;;17.20;1.00;;;;;;4945796;29;20249;-66
2023/03/15 10:54:11;;;;;;;8.30;2.70;;;16.20;1.00;;;;;;4962920;28;20746;-65
2023/03/15 10:56:53;;;;;;;7.18;2.67;;;14.50;1.00;;;;;;4945014;28;20282;-66
2023/03/15 10:59:23;;;;;;;6.63;2.50;;;13.10;1.00;;;;;;4940298;28;20254;-63
2023/03/15 11:02:13;;;;;;;5.22;2.40;;;12.30;1.00;;;;;;4947421;28;20206;-64
2023/03/15 11:04:42;;;;;;;8.52;2.25;;;17.10;1.00;;;;;;4945316;29;20293;-65
2023/03/15 11:07:12;;;;;;;4.85;2.10;;;21.50;1.00;;;;;;4945283;28;20207;-65
2023/03/15 11:09:51;;;;;;;7.43;2.53;;;23.40;1.00;;;;;;4962338;28;20313;-64
2023/03/15 11:12:40;;;;;;;6.45;2.40;;;25.30;1.00;;;;;;4948022;29;20682;-64
2023/03/15 11:15:13;;;;;;;8.02;2.00;;;26.20;1.00;;;;;;4948162;29;20563;-63
2023/03/15 11:17:48;;;;;;;4.68;1.77;;;26.00;1.00;;;;;;4962279;28;20285;-66
2023/03/15 11:20:44;;;;;;;9.35;2.08;;;23.20;1.00;;;;;;4962440;28;20206;-66
2023/03/15 11:23:24;;;;;;;7.55;2.17;;;24.40;1.00;;;;;;4943961;28;20211;-67
2023/03/15 11:25:52;;;;;;;6.25;1.85;;;24.60;1.00;;;;;;4947966;28;20207;-67
2023/03/15 11:28:24;;;;;;;3.78;1.80;;;24.40;1.00;;;;;;4942382;28;20286;-63
2023/03/15 11:30:51;;;;;;;5.22;2.08;;;24.40;1.00;;;;;;4948986;29;20254;-65
2023/03/15 11:33:49;;;;;;;6.75;2.33;;;23.10;1.00;;;;;;4946499;28;20896;-66
2023/03/15 11:36:23;;;;;;;6.07;2.20;;;24.10;1.00;;;;;;4950182;28;20622;-66
2023/03/15 11:38:52;;;;;;;6.82;2.17;;;23.70;1.00;;;;;;4967107;28;20298;-67
2023/03/15 11:41:25;;;;;;;6.60;2.25;;;23.90;1.00;;;;;;4952261;29;20679;-67
2023/03/15 11:44:37;;;;;;;7.22;2.70;;;22.80;1.00;;;;;;4951307;28;20230;-65
2023/03/15 11:47:10;;;;;;;9.85;2.38;;;22.00;1.00;;;;;;4952513;28;20215;-67
2023/03/15 11:49:52;;;;;;;6.50;2.28;;;22.80;1.00;;;;;;4951133;28;20211;-64
2023/03/15 11:52:23;;;;;;;5.82;2.00;;;22.60;1.00;;;;;;4963669;28;20694;-63
2023/03/15 11:54:54;;;;;;;4.53;1.70;;;20.00;1.00;;;;;;4950519;28;20536;-64
2023/03/15 11:57:45;;;;;;;4.63;1.63;;;20.20;1.00;;;;;;4948877;28;20223;-65
2023/03/15 12:00:27;;;;;;;8.00;1.90;;;18.20;1.00;;;;;;4948576;28;20350;-66
2023/03/15 12:02:57;;;;;;;13.00;5.00;;;19.50;1.00;;;;;;4943784;28;20199;-66
2023/03/15 12:05:47;;;;;;;6.90;1.85;;;20.60;1.00;;;;;;4941943;28;20840;-64
2023/03/15 12:08:17;;;;;;;8.88;2.10;;;21.50;1.00;;;;;;4950786;28;20191;-65
2023/03/15 12:10:46;;;;;;;5.05;1.80;;;21.60;1.00;;;;;;4949779;28;20206;-66
2023/03/15 12:13:23;;;;;;;2.90;1.77;;;21.40;1.00;;;;;;4949608;28;20235;-65
2023/03/15 12:15:50;;;;;;;6.07;1.73;;;20.50;1.00;;;;;;4949748;28;20202;-65
2023/03/15 12:18:40;;;;;;;6.95;1.77;;;20.60;1.00;;;;;;4950542;28;20704;-66
2023/03/15 12:21:08;;;;;;;6.63;2.00;;;20.10;1.00;;;;;;4963415;28;20298;-65
2023/03/15 12:23:41;;;;;;;4.72;1.73;;;19.60;1.00;;;;;;4955339;28;20231;-62
2023/03/15 12:26:34;;;;;;;4.40;1.70;;;18.30;1.00;;;;;;4945062;28;20640;-62
2023/03/15 12:29:31;;;;;;;3.25;1.60;;;16.50;1.00;;;;;;4947864;29;20225;-63
2023/03/15 12:32:01;;;;;;;9.10;2.30;;;17.10;1.00;;;;;;4960385;28;20207;-61
2023/03/15 12:34:54;;;;;;;10.63;2.50;;;17.40;1.00;;;;;;4944032;28;20258;-60
2023/03/15 12:37:37;;;;;;;3.63;1.98;;;15.90;1.00;;;;;;4946638;28;20255;-63
2023/03/15 12:40:21;;;;;;;5.70;2.28;;;14.60;1.00;;;;;;4940872;29;20528;-64
2023/03/15 12:42:48;;;;;;;5.75;1.90;;;14.30;1.00;;;;;;4949090;29;20218;-62
2023/03/15 12:45:15;;;;;;;5.13;1.75;;;13.90;1.00;;;;;;4950383;28;20290;-65
2023/03/15 12:47:46;;;;;;;4.07;1.70;;;15.40;1.00;;;;;;4964059;28;20627;-64
2023/03/15 12:50:53;;;;;;;3.58;1.60;;;16.00;1.00;;;;;;4947268;29;20255;-62
2023/03/15 12:53:26;;;;;;;4.50;1.60;;;15.70;1.00;;;;;;4976731;28;20206;-64
2023/03/15 12:55:54;;;;;;;4.57;1.20;;;15.80;1.00;;;;;;4950169;28;20298;-64
2023/03/15 12:58:40;;;;;;;6.65;1.85;;;15.60;1.00;;;;;;4949648;28;20258;-63
2023/03/15 13:01:15;;;;;;;4.60;1.55;;;15.40;1.00;;;;;;4948104;29;20191;-64
2023/03/15 13:03:43;;;;;;;6.47;1.70;;;15.60;1.00;;;;;;4947168;28;20329;-61
2023/03/15 13:06:57;;;;;;;4.05;1.65;;;15.70;1.00;;;;;;4947267;28;20210;-61
2023/03/15 13:09:40;;;;;;;3.97;1.70;;;15.60;1.00;;;;;;4955367;28;20224;-65
2023/03/15 13:12:33;;;;;;;5.75;2.00;;;15.60;1.00;;;;;;4937356;28;20266;-64
2023/03/15 13:15:24;;;;;;;6.50;1.80;;;14.90;1.00;;;;;;4944090;28;20199;-64
2023/03/15 13:17:57;;;;;;;3.53;1.85;;;15.10;1.00;;;;;;4946780;28;20226;-64
2023/03/15 13:21:05;;;;;;;4.90;1.70;;;14.80;1.00;;;;;;4939904;28;20210;-64
2023/03/15 13:23:33;;;;;;;4.22;1.70;;;14.40;1.00;;;;;;4948205;29;20266;-63
2023/03/15 13:26:12;;;;;;;3.15;1.80;;;13.80;1.00;;;;;;4940269;28;20218;-60
2023/03/15 13:28:49;;;;;;;3.97;1.60;;;13.50;1.00;;;;;;4963494;28;20289;-62